sensor_id;sensor_type;location;lat;lon;timestamp;P1;durP1;ratioP1;P2;durP2;ratioP2
57627;SDS011;43451;49.060;10.616;2023-06-19T00:02:02;8.18;;;7.07;;
57627;SDS011;43451;49.060;10.616;2023-06-19T00:04:27;8.90;;;6.93;;
57627;SDS011;43451;49.060;10.616;2023-06-19T00:06:53;8.20;;;7.03;;
57627;SDS011;43451;49.060;10.616;2023-06-19T00:09:19;8.45;;;6.80;;
57627;SDS011;43451;49.060;10.616;2023-06-19T00:11:45;8.63;;;7.05;;
57627;SDS011;43451;49.060;10.616;2023-06-19T00:14:10;9.95;;;7.63;;
57627;SDS011;43451;49.060;10.616;2023-06-19T00:16:36;11.05;;;7.38;;
57627;SDS011;43451;49.060;10.616;2023-06-19T00:19:02;10.07;;;7.53;;
57627;SDS011;43451;49.060;10.616;2023-06-19T00:21:28;8.30;;;7.28;;
57627;SDS011;43451;49.060;10.616;2023-06-19T00:23:54;8.43;;;6.95;;
57627;SDS011;43451;49.060;10.616;2023-06-19T00:26:20;8.05;;;6.95;;
57627;SDS011;43451;49.060;10.616;2023-06-19T00:28:48;8.70;;;7.30;;
57627;SDS011;43451;49.060;10.616;2023-06-19T00:31:14;8.80;;;7.03;;
57627;SDS011;43451;49.060;10.616;2023-06-19T00:33:40;8.05;;;7.25;;
57627;SDS011;43451;49.060;10.616;2023-06-19T00:36:16;9.95;;;7.82;;
57627;SDS011;43451;49.060;10.616;2023-06-19T00:38:45;10.32;;;7.68;;
57627;SDS011;43451;49.060;10.616;2023-06-19T00:41:11;11.27;;;7.85;;
57627;SDS011;43451;49.060;10.616;2023-06-19T00:43:37;10.88;;;7.32;;
57627;SDS011;43451;49.060;10.616;2023-06-19T00:46:03;8.38;;;7.00;;
57627;SDS011;43451;49.060;10.616;2023-06-19T00:48:29;8.32;;;6.80;;
57627;SDS011;43451;49.060;10.616;2023-06-19T00:50:56;10.15;;;7.22;;
57627;SDS011;43451;49.060;10.616;2023-06-19T00:53:23;8.75;;;7.35;;
57627;SDS011;43451;49.060;10.616;2023-06-19T00:55:52;8.97;;;7.57;;
57627;SDS011;43451;49.060;10.616;2023-06-19T00:58:19;8.32;;;7.15;;
57627;SDS011;43451;49.060;10.616;2023-06-19T01:00:46;8.60;;;7.40;;
57627;SDS011;43451;49.060;10.616;2023-06-19T01:03:12;9.27;;;7.35;;
57627;SDS011;43451;49.060;10.616;2023-06-19T01:05:38;8.80;;;7.60;;
57627;SDS011;43451;49.060;10.616;2023-06-19T01:08:11;8.50;;;7.18;;
57627;SDS011;43451;49.060;10.616;2023-06-19T01:10:56;8.00;;;7.20;;
57627;SDS011;43451;49.060;10.616;2023-06-19T01:16:02;8.65;;;7.13;;
57627;SDS011;43451;49.060;10.616;2023-06-19T01:18:33;8.57;;;7.18;;
57627;SDS011;43451;49.060;10.616;2023-06-19T01:21:12;9.23;;;7.90;;
57627;SDS011;43451;49.060;10.616;2023-06-19T01:23:39;9.77;;;7.78;;
57627;SDS011;43451;49.060;10.616;2023-06-19T01:26:05;9.73;;;7.72;;
57627;SDS011;43451;49.060;10.616;2023-06-19T01:28:32;9.48;;;7.55;;
57627;SDS011;43451;49.060;10.616;2023-06-19T01:30:58;10.17;;;7.53;;
57627;SDS011;43451;49.060;10.616;2023-06-19T01:33:26;10.10;;;7.65;;
57627;SDS011;43451;49.060;10.616;2023-06-19T01:35:53;9.02;;;7.85;;
57627;SDS011;43451;49.060;10.616;2023-06-19T01:38:20;8.55;;;7.55;;
57627;SDS011;43451;49.060;10.616;2023-06-19T01:40:50;9.70;;;7.88;;
57627;SDS011;43451;49.060;10.616;2023-06-19T01:43:18;8.98;;;7.22;;
57627;SDS011;43451;49.060;10.616;2023-06-19T01:45:44;9.30;;;8.27;;
57627;SDS011;43451;49.060;10.616;2023-06-19T01:48:10;9.77;;;8.02;;
57627;SDS011;43451;49.060;10.616;2023-06-19T01:50:37;10.32;;;8.30;;
57627;SDS011;43451;49.060;10.616;2023-06-19T01:53:02;10.38;;;8.13;;
57627;SDS011;43451;49.060;10.616;2023-06-19T01:55:28;11.35;;;8.00;;
57627;SDS011;43451;49.060;10.616;2023-06-19T01:57:53;8.90;;;7.85;;
57627;SDS011;43451;49.060;10.616;2023-06-19T02:00:19;10.15;;;7.63;;
57627;SDS011;43451;49.060;10.616;2023-06-19T02:02:44;9.95;;;8.02;;
57627;SDS011;43451;49.060;10.616;2023-06-19T02:05:10;9.93;;;8.63;;
57627;SDS011;43451;49.060;10.616;2023-06-19T02:07:36;11.43;;;8.30;;
57627;SDS011;43451;49.060;10.616;2023-06-19T02:10:02;9.52;;;8.10;;
57627;SDS011;43451;49.060;10.616;2023-06-19T02:12:27;9.13;;;7.78;;
57627;SDS011;43451;49.060;10.616;2023-06-19T02:14:53;10.15;;;8.48;;
57627;SDS011;43451;49.060;10.616;2023-06-19T02:17:18;8.85;;;7.95;;
57627;SDS011;43451;49.060;10.616;2023-06-19T02:19:44;9.85;;;8.30;;
57627;SDS011;43451;49.060;10.616;2023-06-19T02:22:09;11.02;;;8.48;;
57627;SDS011;43451;49.060;10.616;2023-06-19T02:24:34;9.18;;;8.15;;
57627;SDS011;43451;49.060;10.616;2023-06-19T02:27:02;10.15;;;8.13;;
57627;SDS011;43451;49.060;10.616;2023-06-19T02:29:27;8.80;;;7.82;;
57627;SDS011;43451;49.060;10.616;2023-06-19T02:31:55;9.13;;;8.07;;
57627;SDS011;43451;49.060;10.616;2023-06-19T02:34:20;11.77;;;8.38;;
57627;SDS011;43451;49.060;10.616;2023-06-19T02:36:49;8.50;;;7.60;;
57627;SDS011;43451;49.060;10.616;2023-06-19T02:39:15;13.63;;;8.38;;
57627;SDS011;43451;49.060;10.616;2023-06-19T02:41:40;10.45;;;8.68;;
57627;SDS011;43451;49.060;10.616;2023-06-19T02:44:10;10.07;;;8.23;;
57627;SDS011;43451;49.060;10.616;2023-06-19T02:46:39;10.18;;;8.13;;
57627;SDS011;43451;49.060;10.616;2023-06-19T02:49:04;9.98;;;7.90;;
57627;SDS011;43451;49.060;10.616;2023-06-19T02:51:30;9.32;;;8.27;;
57627;SDS011;43451;49.060;10.616;2023-06-19T02:53:55;11.05;;;8.43;;
57627;SDS011;43451;49.060;10.616;2023-06-19T02:56:21;10.70;;;8.32;;
57627;SDS011;43451;49.060;10.616;2023-06-19T02:58:47;10.77;;;8.70;;
57627;SDS011;43451;49.060;10.616;2023-06-19T03:01:12;10.55;;;8.75;;
57627;SDS011;43451;49.060;10.616;2023-06-19T03:03:38;10.23;;;8.20;;
57627;SDS011;43451;49.060;10.616;2023-06-19T03:06:07;11.07;;;8.80;;
57627;SDS011;43451;49.060;10.616;2023-06-19T03:08:36;11.20;;;8.88;;
57627;SDS011;43451;49.060;10.616;2023-06-19T03:11:02;12.93;;;8.88;;
57627;SDS011;43451;49.060;10.616;2023-06-19T03:13:43;11.98;;;8.30;;
57627;SDS011;43451;49.060;10.616;2023-06-19T03:16:12;13.05;;;8.50;;
57627;SDS011;43451;49.060;10.616;2023-06-19T03:18:38;10.18;;;8.13;;
57627;SDS011;43451;49.060;10.616;2023-06-19T03:21:03;11.13;;;8.48;;
57627;SDS011;43451;49.060;10.616;2023-06-19T03:23:29;9.18;;;8.25;;
57627;SDS011;43451;49.060;10.616;2023-06-19T03:25:54;9.80;;;8.65;;
57627;SDS011;43451;49.060;10.616;2023-06-19T03:28:20;10.95;;;9.10;;
57627;SDS011;43451;49.060;10.616;2023-06-19T03:30:46;14.05;;;8.68;;
57627;SDS011;43451;49.060;10.616;2023-06-19T03:33:11;11.05;;;8.60;;
57627;SDS011;43451;49.060;10.616;2023-06-19T03:35:37;10.20;;;8.90;;
57627;SDS011;43451;49.060;10.616;2023-06-19T03:38:02;13.15;;;8.48;;
57627;SDS011;43451;49.060;10.616;2023-06-19T03:40:28;11.60;;;8.77;;
57627;SDS011;43451;49.060;10.616;2023-06-19T03:42:54;10.88;;;8.88;;
57627;SDS011;43451;49.060;10.616;2023-06-19T03:45:19;10.50;;;8.82;;
57627;SDS011;43451;49.060;10.616;2023-06-19T03:47:45;10.20;;;8.70;;
57627;SDS011;43451;49.060;10.616;2023-06-19T03:50:10;15.55;;;8.68;;
57627;SDS011;43451;49.060;10.616;2023-06-19T03:52:36;11.90;;;9.32;;
57627;SDS011;43451;49.060;10.616;2023-06-19T03:55:02;12.82;;;8.82;;
57627;SDS011;43451;49.060;10.616;2023-06-19T03:57:28;9.68;;;8.68;;
57627;SDS011;43451;49.060;10.616;2023-06-19T03:59:53;11.05;;;8.32;;
57627;SDS011;43451;49.060;10.616;2023-06-19T04:02:19;10.65;;;8.75;;
57627;SDS011;43451;49.060;10.616;2023-06-19T04:04:44;10.05;;;9.02;;
57627;SDS011;43451;49.060;10.616;2023-06-19T04:07:10;15.75;;;9.18;;
57627;SDS011;43451;49.060;10.616;2023-06-19T04:09:35;16.80;;;8.95;;
57627;SDS011;43451;49.060;10.616;2023-06-19T04:12:01;11.20;;;8.75;;
57627;SDS011;43451;49.060;10.616;2023-06-19T04:14:26;11.98;;;8.68;;
57627;SDS011;43451;49.060;10.616;2023-06-19T04:16:52;13.23;;;9.23;;
57627;SDS011;43451;49.060;10.616;2023-06-19T04:19:17;11.45;;;9.45;;
57627;SDS011;43451;49.060;10.616;2023-06-19T04:21:43;12.82;;;8.90;;
57627;SDS011;43451;49.060;10.616;2023-06-19T04:24:08;11.23;;;8.57;;
57627;SDS011;43451;49.060;10.616;2023-06-19T04:26:34;11.38;;;8.65;;
57627;SDS011;43451;49.060;10.616;2023-06-19T04:29:01;13.75;;;9.60;;
57627;SDS011;43451;49.060;10.616;2023-06-19T04:31:28;10.95;;;9.20;;
57627;SDS011;43451;49.060;10.616;2023-06-19T04:33:55;12.07;;;8.80;;
57627;SDS011;43451;49.060;10.616;2023-06-19T04:36:21;12.07;;;9.50;;
57627;SDS011;43451;49.060;10.616;2023-06-19T04:38:48;10.70;;;9.13;;
57627;SDS011;43451;49.060;10.616;2023-06-19T04:41:16;11.38;;;9.05;;
57627;SDS011;43451;49.060;10.616;2023-06-19T04:43:42;13.18;;;9.52;;
57627;SDS011;43451;49.060;10.616;2023-06-19T04:46:07;10.60;;;9.50;;
57627;SDS011;43451;49.060;10.616;2023-06-19T04:48:33;11.20;;;9.25;;
57627;SDS011;43451;49.060;10.616;2023-06-19T04:51:01;16.30;;;8.60;;
57627;SDS011;43451;49.060;10.616;2023-06-19T04:53:27;10.82;;;9.18;;
57627;SDS011;43451;49.060;10.616;2023-06-19T04:55:53;12.55;;;9.40;;
57627;SDS011;43451;49.060;10.616;2023-06-19T04:58:20;15.48;;;9.07;;
57627;SDS011;43451;49.060;10.616;2023-06-19T05:00:46;11.68;;;9.38;;
57627;SDS011;43451;49.060;10.616;2023-06-19T05:03:16;11.70;;;9.07;;
57627;SDS011;43451;49.060;10.616;2023-06-19T05:05:43;12.43;;;8.88;;
57627;SDS011;43451;49.060;10.616;2023-06-19T05:08:09;10.40;;;9.18;;
57627;SDS011;43451;49.060;10.616;2023-06-19T05:10:34;9.80;;;8.80;;
57627;SDS011;43451;49.060;10.616;2023-06-19T05:13:00;11.00;;;9.07;;
57627;SDS011;43451;49.060;10.616;2023-06-19T05:15:27;11.50;;;8.90;;
57627;SDS011;43451;49.060;10.616;2023-06-19T05:17:53;11.50;;;8.88;;
57627;SDS011;43451;49.060;10.616;2023-06-19T05:20:18;11.40;;;9.13;;
57627;SDS011;43451;49.060;10.616;2023-06-19T05:22:44;9.75;;;8.73;;
57627;SDS011;43451;49.060;10.616;2023-06-19T05:25:10;11.77;;;8.98;;
57627;SDS011;43451;49.060;10.616;2023-06-19T05:27:35;11.35;;;9.25;;
57627;SDS011;43451;49.060;10.616;2023-06-19T05:30:01;9.98;;;8.98;;
57627;SDS011;43451;49.060;10.616;2023-06-19T05:32:26;10.13;;;8.90;;
57627;SDS011;43451;49.060;10.616;2023-06-19T05:34:53;13.00;;;8.98;;
57627;SDS011;43451;49.060;10.616;2023-06-19T05:37:18;10.63;;;8.73;;
57627;SDS011;43451;49.060;10.616;2023-06-19T05:39:44;13.10;;;8.32;;
57627;SDS011;43451;49.060;10.616;2023-06-19T05:42:09;17.00;;;8.40;;
57627;SDS011;43451;49.060;10.616;2023-06-19T05:44:35;10.93;;;8.02;;
57627;SDS011;43451;49.060;10.616;2023-06-19T05:47:00;10.13;;;7.95;;
57627;SDS011;43451;49.060;10.616;2023-06-19T05:49:26;8.95;;;7.82;;
57627;SDS011;43451;49.060;10.616;2023-06-19T05:51:51;10.77;;;8.35;;
57627;SDS011;43451;49.060;10.616;2023-06-19T05:54:17;11.95;;;8.77;;
57627;SDS011;43451;49.060;10.616;2023-06-19T05:56:43;11.05;;;8.70;;
57627;SDS011;43451;49.060;10.616;2023-06-19T05:59:08;13.27;;;8.02;;
57627;SDS011;43451;49.060;10.616;2023-06-19T06:01:34;10.52;;;8.63;;
57627;SDS011;43451;49.060;10.616;2023-06-19T06:03:59;14.32;;;8.73;;
57627;SDS011;43451;49.060;10.616;2023-06-19T06:06:26;10.48;;;8.35;;
57627;SDS011;43451;49.060;10.616;2023-06-19T06:08:52;10.10;;;8.40;;
57627;SDS011;43451;49.060;10.616;2023-06-19T06:11:19;12.20;;;8.25;;
57627;SDS011;43451;49.060;10.616;2023-06-19T06:13:45;11.98;;;7.82;;
57627;SDS011;43451;49.060;10.616;2023-06-19T06:16:11;11.98;;;8.32;;
57627;SDS011;43451;49.060;10.616;2023-06-19T06:18:36;11.80;;;7.78;;
57627;SDS011;43451;49.060;10.616;2023-06-19T06:21:02;9.93;;;7.28;;
57627;SDS011;43451;49.060;10.616;2023-06-19T06:23:27;10.07;;;7.60;;
57627;SDS011;43451;49.060;10.616;2023-06-19T06:25:53;9.38;;;7.40;;
57627;SDS011;43451;49.060;10.616;2023-06-19T06:28:22;10.02;;;7.22;;
57627;SDS011;43451;49.060;10.616;2023-06-19T06:30:47;9.35;;;8.02;;
57627;SDS011;43451;49.060;10.616;2023-06-19T06:33:13;27.10;;;8.40;;
57627;SDS011;43451;49.060;10.616;2023-06-19T06:35:38;16.33;;;8.10;;
57627;SDS011;43451;49.060;10.616;2023-06-19T06:38:04;10.43;;;7.47;;
57627;SDS011;43451;49.060;10.616;2023-06-19T06:40:29;12.43;;;7.95;;
57627;SDS011;43451;49.060;10.616;2023-06-19T06:42:55;11.18;;;8.07;;
57627;SDS011;43451;49.060;10.616;2023-06-19T06:45:20;10.18;;;7.88;;
57627;SDS011;43451;49.060;10.616;2023-06-19T06:47:46;10.55;;;7.95;;
57627;SDS011;43451;49.060;10.616;2023-06-19T06:50:12;9.45;;;7.80;;
57627;SDS011;43451;49.060;10.616;2023-06-19T06:52:37;8.30;;;7.30;;
57627;SDS011;43451;49.060;10.616;2023-06-19T06:55:03;9.27;;;7.30;;
57627;SDS011;43451;49.060;10.616;2023-06-19T06:57:29;10.75;;;7.30;;
57627;SDS011;43451;49.060;10.616;2023-06-19T06:59:55;8.35;;;6.30;;
57627;SDS011;43451;49.060;10.616;2023-06-19T07:02:20;7.13;;;6.43;;
57627;SDS011;43451;49.060;10.616;2023-06-19T07:04:46;7.50;;;6.35;;
57627;SDS011;43451;49.060;10.616;2023-06-19T07:07:12;9.00;;;6.30;;
57627;SDS011;43451;49.060;10.616;2023-06-19T07:09:37;10.20;;;6.90;;
57627;SDS011;43451;49.060;10.616;2023-06-19T07:12:02;7.43;;;6.65;;
57627;SDS011;43451;49.060;10.616;2023-06-19T07:14:30;13.98;;;6.68;;
57627;SDS011;43451;49.060;10.616;2023-06-19T07:16:55;7.57;;;6.70;;
57627;SDS011;43451;49.060;10.616;2023-06-19T07:19:21;8.77;;;6.68;;
57627;SDS011;43451;49.060;10.616;2023-06-19T07:21:46;8.77;;;6.85;;
57627;SDS011;43451;49.060;10.616;2023-06-19T07:24:12;7.95;;;6.40;;
57627;SDS011;43451;49.060;10.616;2023-06-19T07:26:38;7.88;;;6.55;;
57627;SDS011;43451;49.060;10.616;2023-06-19T07:29:03;10.18;;;6.20;;
57627;SDS011;43451;49.060;10.616;2023-06-19T07:31:29;13.48;;;6.78;;
57627;SDS011;43451;49.060;10.616;2023-06-19T07:33:54;9.93;;;6.00;;
57627;SDS011;43451;49.060;10.616;2023-06-19T07:36:20;6.72;;;5.78;;
57627;SDS011;43451;49.060;10.616;2023-06-19T07:38:45;6.65;;;5.85;;
57627;SDS011;43451;49.060;10.616;2023-06-19T07:41:11;11.05;;;5.82;;
57627;SDS011;43451;49.060;10.616;2023-06-19T07:43:37;14.57;;;6.50;;
57627;SDS011;43451;49.060;10.616;2023-06-19T07:46:03;11.20;;;6.30;;
57627;SDS011;43451;49.060;10.616;2023-06-19T07:48:29;7.47;;;5.78;;
57627;SDS011;43451;49.060;10.616;2023-06-19T07:50:54;25.85;;;7.07;;
57627;SDS011;43451;49.060;10.616;2023-06-19T07:53:20;6.68;;;5.45;;
57627;SDS011;43451;49.060;10.616;2023-06-19T07:55:46;7.50;;;6.00;;
57627;SDS011;43451;49.060;10.616;2023-06-19T07:58:11;12.27;;;6.10;;
57627;SDS011;43451;49.060;10.616;2023-06-19T08:00:37;15.18;;;6.40;;
57627;SDS011;43451;49.060;10.616;2023-06-19T08:03:03;13.70;;;5.70;;
57627;SDS011;43451;49.060;10.616;2023-06-19T08:05:29;14.38;;;6.03;;
57627;SDS011;43451;49.060;10.616;2023-06-19T08:07:55;7.47;;;5.90;;
57627;SDS011;43451;49.060;10.616;2023-06-19T08:10:21;9.50;;;5.72;;
57627;SDS011;43451;49.060;10.616;2023-06-19T08:12:47;6.05;;;5.45;;
57627;SDS011;43451;49.060;10.616;2023-06-19T08:15:12;12.15;;;5.80;;
57627;SDS011;43451;49.060;10.616;2023-06-19T08:17:41;6.95;;;5.38;;
57627;SDS011;43451;49.060;10.616;2023-06-19T08:20:07;8.68;;;7.78;;
57627;SDS011;43451;49.060;10.616;2023-06-19T08:22:34;6.80;;;6.20;;
57627;SDS011;43451;49.060;10.616;2023-06-19T08:24:59;6.00;;;5.40;;
57627;SDS011;43451;49.060;10.616;2023-06-19T08:27:25;6.10;;;5.50;;
57627;SDS011;43451;49.060;10.616;2023-06-19T08:29:50;7.22;;;5.20;;
57627;SDS011;43451;49.060;10.616;2023-06-19T08:32:16;5.78;;;4.93;;
57627;SDS011;43451;49.060;10.616;2023-06-19T08:34:41;5.10;;;4.60;;
57627;SDS011;43451;49.060;10.616;2023-06-19T08:37:07;6.72;;;4.30;;
57627;SDS011;43451;49.060;10.616;2023-06-19T08:39:33;7.93;;;4.88;;
57627;SDS011;43451;49.060;10.616;2023-06-19T08:44:26;6.97;;;4.40;;
57627;SDS011;43451;49.060;10.616;2023-06-19T08:46:51;6.25;;;4.63;;
57627;SDS011;43451;49.060;10.616;2023-06-19T08:49:17;6.22;;;4.63;;
57627;SDS011;43451;49.060;10.616;2023-06-19T08:51:42;5.20;;;4.70;;
57627;SDS011;43451;49.060;10.616;2023-06-19T08:54:08;5.25;;;4.40;;
57627;SDS011;43451;49.060;10.616;2023-06-19T08:56:34;7.03;;;4.30;;
57627;SDS011;43451;49.060;10.616;2023-06-19T08:59:13;5.13;;;4.38;;
57627;SDS011;43451;49.060;10.616;2023-06-19T09:01:46;4.70;;;4.10;;
57627;SDS011;43451;49.060;10.616;2023-06-19T09:04:17;6.30;;;4.10;;
57627;SDS011;43451;49.060;10.616;2023-06-19T09:09:17;4.93;;;4.35;;
57627;SDS011;43451;49.060;10.616;2023-06-19T09:12:07;4.20;;;3.78;;
57627;SDS011;43451;49.060;10.616;2023-06-19T09:17:05;4.40;;;3.60;;
57627;SDS011;43451;49.060;10.616;2023-06-19T09:19:33;4.47;;;3.42;;
57627;SDS011;43451;49.060;10.616;2023-06-19T09:22:03;3.38;;;3.08;;
57627;SDS011;43451;49.060;10.616;2023-06-19T09:24:34;2.90;;;2.70;;
57627;SDS011;43451;49.060;10.616;2023-06-19T09:27:10;3.08;;;2.60;;
57627;SDS011;43451;49.060;10.616;2023-06-19T09:29:40;3.80;;;2.83;;
57627;SDS011;43451;49.060;10.616;2023-06-19T09:34:49;3.20;;;2.90;;
57627;SDS011;43451;49.060;10.616;2023-06-19T09:37:23;2.83;;;2.60;;
57627;SDS011;43451;49.060;10.616;2023-06-19T09:39:54;5.70;;;2.60;;
57627;SDS011;43451;49.060;10.616;2023-06-19T09:42:30;2.70;;;2.50;;
57627;SDS011;43451;49.060;10.616;2023-06-19T09:45:06;2.90;;;2.60;;
57627;SDS011;43451;49.060;10.616;2023-06-19T09:47:37;5.13;;;2.60;;
57627;SDS011;43451;49.060;10.616;2023-06-19T09:50:05;3.63;;;2.50;;
57627;SDS011;43451;49.060;10.616;2023-06-19T09:52:32;4.78;;;2.85;;
57627;SDS011;43451;49.060;10.616;2023-06-19T09:54:58;6.28;;;2.80;;
57627;SDS011;43451;49.060;10.616;2023-06-19T09:57:27;2.47;;;2.28;;
57627;SDS011;43451;49.060;10.616;2023-06-19T09:59:54;3.23;;;2.90;;
57627;SDS011;43451;49.060;10.616;2023-06-19T10:02:21;3.92;;;3.40;;
57627;SDS011;43451;49.060;10.616;2023-06-19T10:04:52;4.65;;;3.70;;
57627;SDS011;43451;49.060;10.616;2023-06-19T10:07:21;4.22;;;3.35;;
57627;SDS011;43451;49.060;10.616;2023-06-19T10:10:23;3.63;;;3.28;;
57627;SDS011;43451;49.060;10.616;2023-06-19T10:12:52;4.57;;;3.50;;
57627;SDS011;43451;49.060;10.616;2023-06-19T10:15:24;5.00;;;3.47;;
57627;SDS011;43451;49.060;10.616;2023-06-19T10:17:59;11.18;;;4.30;;
57627;SDS011;43451;49.060;10.616;2023-06-19T10:25:27;3.80;;;3.42;;
57627;SDS011;43451;49.060;10.616;2023-06-19T10:27:54;4.65;;;3.70;;
57627;SDS011;43451;49.060;10.616;2023-06-19T10:30:20;5.45;;;3.58;;
57627;SDS011;43451;49.060;10.616;2023-06-19T10:32:49;4.30;;;3.65;;
57627;SDS011;43451;49.060;10.616;2023-06-19T10:35:15;3.80;;;3.33;;
57627;SDS011;43451;49.060;10.616;2023-06-19T10:37:42;6.45;;;3.70;;
57627;SDS011;43451;49.060;10.616;2023-06-19T10:40:07;3.88;;;3.50;;
57627;SDS011;43451;49.060;10.616;2023-06-19T10:45:04;4.35;;;3.85;;
57627;SDS011;43451;49.060;10.616;2023-06-19T10:47:34;5.00;;;3.92;;
57627;SDS011;43451;49.060;10.616;2023-06-19T10:50:01;6.53;;;4.00;;
57627;SDS011;43451;49.060;10.616;2023-06-19T10:52:30;12.85;;;4.22;;
57627;SDS011;43451;49.060;10.616;2023-06-19T10:54:56;5.57;;;4.60;;
57627;SDS011;43451;49.060;10.616;2023-06-19T10:57:31;5.97;;;4.33;;
57627;SDS011;43451;49.060;10.616;2023-06-19T10:59:57;5.28;;;4.00;;
57627;SDS011;43451;49.060;10.616;2023-06-19T11:02:23;5.57;;;3.80;;
57627;SDS011;43451;49.060;10.616;2023-06-19T11:04:53;4.32;;;3.80;;
57627;SDS011;43451;49.060;10.616;2023-06-19T11:07:20;4.50;;;3.85;;
57627;SDS011;43451;49.060;10.616;2023-06-19T11:09:47;5.43;;;3.90;;
57627;SDS011;43451;49.060;10.616;2023-06-19T11:12:18;4.35;;;3.60;;
57627;SDS011;43451;49.060;10.616;2023-06-19T11:14:48;4.05;;;3.65;;
57627;SDS011;43451;49.060;10.616;2023-06-19T11:17:14;4.95;;;3.55;;
57627;SDS011;43451;49.060;10.616;2023-06-19T11:19:40;4.30;;;3.90;;
57627;SDS011;43451;49.060;10.616;2023-06-19T11:22:08;4.95;;;3.10;;
57627;SDS011;43451;49.060;10.616;2023-06-19T11:24:34;10.38;;;3.65;;
57627;SDS011;43451;49.060;10.616;2023-06-19T11:27:00;3.38;;;3.08;;
57627;SDS011;43451;49.060;10.616;2023-06-19T11:29:26;4.50;;;3.03;;
57627;SDS011;43451;49.060;10.616;2023-06-19T11:32:04;2.50;;;2.30;;
57627;SDS011;43451;49.060;10.616;2023-06-19T11:34:31;5.43;;;2.30;;
57627;SDS011;43451;49.060;10.616;2023-06-19T11:36:58;2.85;;;2.33;;
57627;SDS011;43451;49.060;10.616;2023-06-19T11:39:23;9.57;;;2.65;;
57627;SDS011;43451;49.060;10.616;2023-06-19T11:41:49;10.38;;;3.20;;
57627;SDS011;43451;49.060;10.616;2023-06-19T11:44:16;4.50;;;2.40;;
57627;SDS011;43451;49.060;10.616;2023-06-19T11:46:41;5.68;;;2.75;;
57627;SDS011;43451;49.060;10.616;2023-06-19T11:51:33;2.35;;;2.10;;
57627;SDS011;43451;49.060;10.616;2023-06-19T11:53:58;5.57;;;2.50;;
57627;SDS011;43451;49.060;10.616;2023-06-19T11:56:24;4.68;;;2.20;;
57627;SDS011;43451;49.060;10.616;2023-06-19T11:58:49;10.85;;;2.50;;
57627;SDS011;43451;49.060;10.616;2023-06-19T12:01:15;33.25;;;3.30;;
57627;SDS011;43451;49.060;10.616;2023-06-19T12:03:40;7.20;;;2.33;;
57627;SDS011;43451;49.060;10.616;2023-06-19T12:06:05;2.30;;;2.08;;
57627;SDS011;43451;49.060;10.616;2023-06-19T12:08:31;3.67;;;1.85;;
57627;SDS011;43451;49.060;10.616;2023-06-19T12:10:58;2.33;;;1.85;;
57627;SDS011;43451;49.060;10.616;2023-06-19T12:13:23;2.95;;;2.03;;
57627;SDS011;43451;49.060;10.616;2023-06-19T12:15:49;2.50;;;2.00;;
57627;SDS011;43451;49.060;10.616;2023-06-19T12:18:14;2.70;;;2.10;;
57627;SDS011;43451;49.060;10.616;2023-06-19T12:20:40;3.28;;;2.00;;
57627;SDS011;43451;49.060;10.616;2023-06-19T12:23:06;2.53;;;2.05;;
57627;SDS011;43451;49.060;10.616;2023-06-19T12:25:31;3.47;;;2.13;;
57627;SDS011;43451;49.060;10.616;2023-06-19T12:27:57;2.17;;;1.98;;
57627;SDS011;43451;49.060;10.616;2023-06-19T12:30:23;3.25;;;2.15;;
57627;SDS011;43451;49.060;10.616;2023-06-19T12:32:50;6.18;;;2.35;;
57627;SDS011;43451;49.060;10.616;2023-06-19T12:35:15;3.60;;;2.33;;
57627;SDS011;43451;49.060;10.616;2023-06-19T12:37:40;4.35;;;2.60;;
57627;SDS011;43451;49.060;10.616;2023-06-19T12:40:06;2.72;;;2.53;;
57627;SDS011;43451;49.060;10.616;2023-06-19T12:42:35;4.70;;;2.60;;
57627;SDS011;43451;49.060;10.616;2023-06-19T12:45:01;3.55;;;2.80;;
57627;SDS011;43451;49.060;10.616;2023-06-19T12:47:28;4.53;;;3.10;;
57627;SDS011;43451;49.060;10.616;2023-06-19T12:49:53;3.88;;;3.30;;
57627;SDS011;43451;49.060;10.616;2023-06-19T12:52:19;3.53;;;3.15;;
57627;SDS011;43451;49.060;10.616;2023-06-19T12:54:45;3.40;;;2.70;;
57627;SDS011;43451;49.060;10.616;2023-06-19T12:57:10;5.90;;;3.13;;
57627;SDS011;43451;49.060;10.616;2023-06-19T12:59:36;3.95;;;2.75;;
57627;SDS011;43451;49.060;10.616;2023-06-19T13:02:01;5.47;;;4.65;;
57627;SDS011;43451;49.060;10.616;2023-06-19T13:04:27;5.05;;;4.55;;
57627;SDS011;43451;49.060;10.616;2023-06-19T13:06:53;5.22;;;4.68;;
57627;SDS011;43451;49.060;10.616;2023-06-19T13:09:18;5.65;;;4.88;;
57627;SDS011;43451;49.060;10.616;2023-06-19T13:11:44;6.65;;;5.18;;
57627;SDS011;43451;49.060;10.616;2023-06-19T13:14:09;7.95;;;5.03;;
57627;SDS011;43451;49.060;10.616;2023-06-19T13:16:35;7.25;;;4.40;;
57627;SDS011;43451;49.060;10.616;2023-06-19T13:19:00;6.28;;;4.50;;
57627;SDS011;43451;49.060;10.616;2023-06-19T13:21:26;7.25;;;4.65;;
57627;SDS011;43451;49.060;10.616;2023-06-19T13:23:51;4.97;;;4.53;;
57627;SDS011;43451;49.060;10.616;2023-06-19T13:26:17;12.30;;;5.00;;
57627;SDS011;43451;49.060;10.616;2023-06-19T13:28:42;5.85;;;4.85;;
57627;SDS011;43451;49.060;10.616;2023-06-19T13:31:08;6.50;;;4.88;;
57627;SDS011;43451;49.060;10.616;2023-06-19T13:33:34;5.70;;;4.93;;
57627;SDS011;43451;49.060;10.616;2023-06-19T13:35:59;6.45;;;4.85;;
57627;SDS011;43451;49.060;10.616;2023-06-19T13:38:25;7.05;;;5.28;;
57627;SDS011;43451;49.060;10.616;2023-06-19T13:40:50;6.15;;;5.28;;
57627;SDS011;43451;49.060;10.616;2023-06-19T13:43:16;5.18;;;4.63;;
57627;SDS011;43451;49.060;10.616;2023-06-19T13:45:42;4.40;;;4.00;;
57627;SDS011;43451;49.060;10.616;2023-06-19T13:48:08;5.25;;;4.50;;
57627;SDS011;43451;49.060;10.616;2023-06-19T13:50:34;5.15;;;4.10;;
57627;SDS011;43451;49.060;10.616;2023-06-19T13:53:00;4.38;;;3.92;;
57627;SDS011;43451;49.060;10.616;2023-06-19T13:55:27;4.10;;;3.63;;
57627;SDS011;43451;49.060;10.616;2023-06-19T13:57:53;19.85;;;4.00;;
57627;SDS011;43451;49.060;10.616;2023-06-19T14:00:18;3.45;;;3.00;;
57627;SDS011;43451;49.060;10.616;2023-06-19T14:02:44;4.35;;;2.97;;
57627;SDS011;43451;49.060;10.616;2023-06-19T14:05:10;3.97;;;2.72;;
57627;SDS011;43451;49.060;10.616;2023-06-19T14:07:36;4.25;;;2.67;;
57627;SDS011;43451;49.060;10.616;2023-06-19T14:10:02;2.50;;;2.30;;
57627;SDS011;43451;49.060;10.616;2023-06-19T14:12:29;4.95;;;2.65;;
57627;SDS011;43451;49.060;10.616;2023-06-19T14:14:55;2.67;;;2.47;;
57627;SDS011;43451;49.060;10.616;2023-06-19T14:17:21;2.60;;;2.40;;
57627;SDS011;43451;49.060;10.616;2023-06-19T14:19:47;12.18;;;3.17;;
57627;SDS011;43451;49.060;10.616;2023-06-19T14:22:13;2.85;;;2.30;;
57627;SDS011;43451;49.060;10.616;2023-06-19T14:24:38;2.92;;;2.50;;
57627;SDS011;43451;49.060;10.616;2023-06-19T14:27:04;3.10;;;2.53;;
57627;SDS011;43451;49.060;10.616;2023-06-19T14:29:30;2.45;;;2.22;;
57627;SDS011;43451;49.060;10.616;2023-06-19T14:31:55;2.80;;;2.38;;
57627;SDS011;43451;49.060;10.616;2023-06-19T14:34:21;2.92;;;2.63;;
57627;SDS011;43451;49.060;10.616;2023-06-19T14:36:47;4.10;;;2.50;;
57627;SDS011;43451;49.060;10.616;2023-06-19T14:39:13;2.95;;;2.45;;
57627;SDS011;43451;49.060;10.616;2023-06-19T14:41:39;2.55;;;2.17;;
57627;SDS011;43451;49.060;10.616;2023-06-19T14:44:05;2.70;;;2.50;;
57627;SDS011;43451;49.060;10.616;2023-06-19T14:46:34;3.53;;;2.40;;
57627;SDS011;43451;49.060;10.616;2023-06-19T14:49:09;5.28;;;2.55;;
57627;SDS011;43451;49.060;10.616;2023-06-19T14:51:35;2.60;;;2.30;;